sensor_id;sensor_type;location;lat;lon;timestamp;temperature;humidity
12708;DHT22;6418;50.824;4.718;2022-10-16T00:00:48;12.90;99.90
12708;DHT22;6418;50.824;4.718;2022-10-16T00:03:15;12.90;99.90
12708;DHT22;6418;50.824;4.718;2022-10-16T00:05:43;12.90;99.90
12708;DHT22;6418;50.824;4.718;2022-10-16T00:08:11;12.90;99.90
12708;DHT22;6418;50.824;4.718;2022-10-16T00:10:39;12.90;99.90
12708;DHT22;6418;50.824;4.718;2022-10-16T00:13:08;12.90;99.90
12708;DHT22;6418;50.824;4.718;2022-10-16T00:15:35;12.90;99.90
12708;DHT22;6418;50.824;4.718;2022-10-16T00:18:03;12.90;99.90
12708;DHT22;6418;50.824;4.718;2022-10-16T00:20:33;12.80;99.90
12708;DHT22;6418;50.824;4.718;2022-10-16T00:23:02;12.80;99.90
12708;DHT22;6418;50.824;4.718;2022-10-16T00:25:29;12.80;99.90
12708;DHT22;6418;50.824;4.718;2022-10-16T00:27:58;12.80;99.90
12708;DHT22;6418;50.824;4.718;2022-10-16T00:30:26;12.80;99.90
12708;DHT22;6418;50.824;4.718;2022-10-16T00:32:54;12.80;99.90
12708;DHT22;6418;50.824;4.718;2022-10-16T00:35:21;12.80;99.90
12708;DHT22;6418;50.824;4.718;2022-10-16T00:37:48;12.80;99.90
12708;DHT22;6418;50.824;4.718;2022-10-16T00:40:15;12.80;99.90
12708;DHT22;6418;50.824;4.718;2022-10-16T00:42:42;12.80;99.90
12708;DHT22;6418;50.824;4.718;2022-10-16T00:45:09;12.80;99.90
12708;DHT22;6418;50.824;4.718;2022-10-16T00:47:40;12.70;99.90
12708;DHT22;6418;50.824;4.718;2022-10-16T00:50:16;12.70;99.90
12708;DHT22;6418;50.824;4.718;2022-10-16T00:52:47;12.70;99.90
12708;DHT22;6418;50.824;4.718;2022-10-16T00:55:14;12.70;99.90
12708;DHT22;6418;50.824;4.718;2022-10-16T00:57:42;12.70;99.90
12708;DHT22;6418;50.824;4.718;2022-10-16T01:00:13;12.70;99.90
12708;DHT22;6418;50.824;4.718;2022-10-16T01:02:42;12.60;99.90
12708;DHT22;6418;50.824;4.718;2022-10-16T01:05:09;12.60;99.90
12708;DHT22;6418;50.824;4.718;2022-10-16T01:07:41;12.60;99.90
12708;DHT22;6418;50.824;4.718;2022-10-16T01:10:17;12.60;99.90
12708;DHT22;6418;50.824;4.718;2022-10-16T01:12:56;12.60;99.90
12708;DHT22;6418;50.824;4.718;2022-10-16T01:15:27;12.60;99.90
12708;DHT22;6418;50.824;4.718;2022-10-16T01:18:00;12.60;99.90
12708;DHT22;6418;50.824;4.718;2022-10-16T01:20:31;12.60;99.90
12708;DHT22;6418;50.824;4.718;2022-10-16T01:23:10;12.60;99.90
12708;DHT22;6418;50.824;4.718;2022-10-16T01:26:00;12.60;99.90
12708;DHT22;6418;50.824;4.718;2022-10-16T01:28:40;12.50;99.90
12708;DHT22;6418;50.824;4.718;2022-10-16T01:31:09;12.60;99.90
12708;DHT22;6418;50.824;4.718;2022-10-16T01:33:41;12.50;99.90
12708;DHT22;6418;50.824;4.718;2022-10-16T01:36:13;12.50;99.90
12708;DHT22;6418;50.824;4.718;2022-10-16T01:38:41;12.60;99.90
12708;DHT22;6418;50.824;4.718;2022-10-16T01:41:11;12.50;99.90
12708;DHT22;6418;50.824;4.718;2022-10-16T01:43:43;12.50;99.90
12708;DHT22;6418;50.824;4.718;2022-10-16T01:46:14;12.60;99.90
12708;DHT22;6418;50.824;4.718;2022-10-16T01:48:42;12.50;99.90
12708;DHT22;6418;50.824;4.718;2022-10-16T01:51:12;12.50;99.90
12708;DHT22;6418;50.824;4.718;2022-10-16T01:53:42;12.50;99.90
12708;DHT22;6418;50.824;4.718;2022-10-16T01:56:12;12.50;99.90
12708;DHT22;6418;50.824;4.718;2022-10-16T01:58:46;12.50;99.90
12708;DHT22;6418;50.824;4.718;2022-10-16T02:01:16;12.50;99.90
12708;DHT22;6418;50.824;4.718;2022-10-16T02:03:46;12.50;99.90
12708;DHT22;6418;50.824;4.718;2022-10-16T02:06:17;12.50;99.90
12708;DHT22;6418;50.824;4.718;2022-10-16T02:08:44;12.50;99.90
12708;DHT22;6418;50.824;4.718;2022-10-16T02:11:11;12.50;99.90
12708;DHT22;6418;50.824;4.718;2022-10-16T02:13:41;12.50;99.90
12708;DHT22;6418;50.824;4.718;2022-10-16T02:16:11;12.40;99.90
12708;DHT22;6418;50.824;4.718;2022-10-16T02:18:40;12.40;99.90
12708;DHT22;6418;50.824;4.718;2022-10-16T02:21:14;12.50;99.90
12708;DHT22;6418;50.824;4.718;2022-10-16T02:23:48;12.40;99.90
12708;DHT22;6418;50.824;4.718;2022-10-16T02:26:28;12.40;99.90
12708;DHT22;6418;50.824;4.718;2022-10-16T02:29:00;12.50;99.90
12708;DHT22;6418;50.824;4.718;2022-10-16T02:31:33;12.40;99.90
12708;DHT22;6418;50.824;4.718;2022-10-16T02:34:03;12.50;99.90
12708;DHT22;6418;50.824;4.718;2022-10-16T02:36:31;12.50;99.90
12708;DHT22;6418;50.824;4.718;2022-10-16T02:38:59;12.50;99.90
12708;DHT22;6418;50.824;4.718;2022-10-16T02:41:27;12.50;99.90
12708;DHT22;6418;50.824;4.718;2022-10-16T02:43:54;12.40;99.90
12708;DHT22;6418;50.824;4.718;2022-10-16T02:46:22;12.40;99.90
12708;DHT22;6418;50.824;4.718;2022-10-16T02:48:49;12.40;99.90
12708;DHT22;6418;50.824;4.718;2022-10-16T02:51:16;12.40;99.90
12708;DHT22;6418;50.824;4.718;2022-10-16T02:53:43;12.40;99.90
12708;DHT22;6418;50.824;4.718;2022-10-16T02:56:10;12.40;99.90
12708;DHT22;6418;50.824;4.718;2022-10-16T02:58:37;12.30;99.90
12708;DHT22;6418;50.824;4.718;2022-10-16T03:01:04;12.40;99.90
12708;DHT22;6418;50.824;4.718;2022-10-16T03:03:32;12.40;99.90
12708;DHT22;6418;50.824;4.718;2022-10-16T03:05:59;12.40;99.90
12708;DHT22;6418;50.824;4.718;2022-10-16T03:08:26;12.40;99.90
12708;DHT22;6418;50.824;4.718;2022-10-16T03:10:53;12.40;99.90
12708;DHT22;6418;50.824;4.718;2022-10-16T03:13:20;12.40;99.90
12708;DHT22;6418;50.824;4.718;2022-10-16T03:15:47;12.40;99.90
12708;DHT22;6418;50.824;4.718;2022-10-16T03:18:14;12.40;99.90
12708;DHT22;6418;50.824;4.718;2022-10-16T03:20:43;12.40;99.90
12708;DHT22;6418;50.824;4.718;2022-10-16T03:23:11;12.40;99.90
12708;DHT22;6418;50.824;4.718;2022-10-16T03:25:38;12.40;99.90
12708;DHT22;6418;50.824;4.718;2022-10-16T03:28:05;12.40;99.90
12708;DHT22;6418;50.824;4.718;2022-10-16T03:30:32;12.40;99.90
12708;DHT22;6418;50.824;4.718;2022-10-16T03:32:59;12.40;99.90
12708;DHT22;6418;50.824;4.718;2022-10-16T03:35:25;12.40;99.90
12708;DHT22;6418;50.824;4.718;2022-10-16T03:37:54;12.30;99.90
12708;DHT22;6418;50.824;4.718;2022-10-16T03:40:21;12.30;99.90
12708;DHT22;6418;50.824;4.718;2022-10-16T03:42:48;12.40;99.90
12708;DHT22;6418;50.824;4.718;2022-10-16T03:45:15;12.40;99.90
12708;DHT22;6418;50.824;4.718;2022-10-16T03:47:42;12.40;99.90
12708;DHT22;6418;50.824;4.718;2022-10-16T03:50:09;12.40;99.90
12708;DHT22;6418;50.824;4.718;2022-10-16T03:52:36;12.30;99.90
12708;DHT22;6418;50.824;4.718;2022-10-16T03:55:06;12.30;99.90
12708;DHT22;6418;50.824;4.718;2022-10-16T03:57:33;12.30;99.90
12708;DHT22;6418;50.824;4.718;2022-10-16T04:00:00;12.30;99.90
12708;DHT22;6418;50.824;4.718;2022-10-16T04:02:27;12.30;99.90
12708;DHT22;6418;50.824;4.718;2022-10-16T04:04:53;12.30;99.90
12708;DHT22;6418;50.824;4.718;2022-10-16T04:07:20;12.80;99.90
12708;DHT22;6418;50.824;4.718;2022-10-16T04:09:47;12.30;99.90
12708;DHT22;6418;50.824;4.718;2022-10-16T04:12:15;12.30;99.90
12708;DHT22;6418;50.824;4.718;2022-10-16T04:14:42;12.30;99.90
12708;DHT22;6418;50.824;4.718;2022-10-16T04:17:09;12.30;99.90
12708;DHT22;6418;50.824;4.718;2022-10-16T04:19:36;12.40;99.90
12708;DHT22;6418;50.824;4.718;2022-10-16T04:22:03;12.30;99.90
12708;DHT22;6418;50.824;4.718;2022-10-16T04:24:30;12.30;99.90
12708;DHT22;6418;50.824;4.718;2022-10-16T04:26:56;12.30;99.90
12708;DHT22;6418;50.824;4.718;2022-10-16T04:29:25;12.30;99.90
12708;DHT22;6418;50.824;4.718;2022-10-16T04:31:52;12.30;99.90
12708;DHT22;6418;50.824;4.718;2022-10-16T04:34:18;12.30;99.90
12708;DHT22;6418;50.824;4.718;2022-10-16T04:36:47;12.30;99.90
12708;DHT22;6418;50.824;4.718;2022-10-16T04:39:13;12.30;99.90
12708;DHT22;6418;50.824;4.718;2022-10-16T04:41:40;12.30;99.90
12708;DHT22;6418;50.824;4.718;2022-10-16T04:44:07;12.30;99.90
12708;DHT22;6418;50.824;4.718;2022-10-16T04:46:35;12.20;99.90
12708;DHT22;6418;50.824;4.718;2022-10-16T04:49:02;12.30;99.90
12708;DHT22;6418;50.824;4.718;2022-10-16T04:51:29;12.30;99.90
12708;DHT22;6418;50.824;4.718;2022-10-16T04:53:56;12.30;99.90
12708;DHT22;6418;50.824;4.718;2022-10-16T04:56:23;12.30;99.90
12708;DHT22;6418;50.824;4.718;2022-10-16T04:58:50;12.30;99.90
12708;DHT22;6418;50.824;4.718;2022-10-16T05:01:17;12.30;99.90
12708;DHT22;6418;50.824;4.718;2022-10-16T05:03:45;12.30;99.90
12708;DHT22;6418;50.824;4.718;2022-10-16T05:06:12;12.20;99.90
12708;DHT22;6418;50.824;4.718;2022-10-16T05:08:39;12.30;99.90
12708;DHT22;6418;50.824;4.718;2022-10-16T05:11:06;12.20;99.90
12708;DHT22;6418;50.824;4.718;2022-10-16T05:13:33;12.20;99.90
12708;DHT22;6418;50.824;4.718;2022-10-16T05:16:00;12.30;99.90
12708;DHT22;6418;50.824;4.718;2022-10-16T05:18:27;12.20;99.90
12708;DHT22;6418;50.824;4.718;2022-10-16T05:20:55;12.20;99.90
12708;DHT22;6418;50.824;4.718;2022-10-16T05:23:22;12.30;99.90
12708;DHT22;6418;50.824;4.718;2022-10-16T05:25:53;12.20;99.90
12708;DHT22;6418;50.824;4.718;2022-10-16T05:28:20;12.20;99.90
12708;DHT22;6418;50.824;4.718;2022-10-16T05:30:47;12.20;99.90
12708;DHT22;6418;50.824;4.718;2022-10-16T05:33:14;12.20;99.90
12708;DHT22;6418;50.824;4.718;2022-10-16T05:35:41;12.20;99.90
12708;DHT22;6418;50.824;4.718;2022-10-16T05:38:10;12.20;99.90
12708;DHT22;6418;50.824;4.718;2022-10-16T05:40:37;12.20;99.90
12708;DHT22;6418;50.824;4.718;2022-10-16T05:43:05;12.20;99.90
12708;DHT22;6418;50.824;4.718;2022-10-16T05:45:32;12.10;99.90
12708;DHT22;6418;50.824;4.718;2022-10-16T05:47:59;12.10;99.90
12708;DHT22;6418;50.824;4.718;2022-10-16T05:50:26;12.00;99.90
12708;DHT22;6418;50.824;4.718;2022-10-16T05:52:53;12.10;99.90
12708;DHT22;6418;50.824;4.718;2022-10-16T05:55:22;12.10;99.90
12708;DHT22;6418;50.824;4.718;2022-10-16T05:57:48;12.10;99.90
12708;DHT22;6418;50.824;4.718;2022-10-16T06:00:16;12.10;99.90
12708;DHT22;6418;50.824;4.718;2022-10-16T06:02:42;12.10;99.90
12708;DHT22;6418;50.824;4.718;2022-10-16T06:05:09;12.10;99.90
12708;DHT22;6418;50.824;4.718;2022-10-16T06:07:36;12.10;99.90
12708;DHT22;6418;50.824;4.718;2022-10-16T06:10:04;12.00;99.90
12708;DHT22;6418;50.824;4.718;2022-10-16T06:12:33;12.10;99.90
12708;DHT22;6418;50.824;4.718;2022-10-16T06:14:59;12.10;99.90
12708;DHT22;6418;50.824;4.718;2022-10-16T06:17:26;12.10;99.90
12708;DHT22;6418;50.824;4.718;2022-10-16T06:19:53;12.00;99.90
12708;DHT22;6418;50.824;4.718;2022-10-16T06:22:20;12.00;99.90
12708;DHT22;6418;50.824;4.718;2022-10-16T06:24:47;12.00;99.90
12708;DHT22;6418;50.824;4.718;2022-10-16T06:27:15;12.00;99.90
12708;DHT22;6418;50.824;4.718;2022-10-16T06:29:43;12.00;99.90
12708;DHT22;6418;50.824;4.718;2022-10-16T06:32:10;12.00;99.90
12708;DHT22;6418;50.824;4.718;2022-10-16T06:34:37;12.10;99.90
12708;DHT22;6418;50.824;4.718;2022-10-16T06:37:05;13.20;99.90
12708;DHT22;6418;50.824;4.718;2022-10-16T06:39:32;12.00;99.90
12708;DHT22;6418;50.824;4.718;2022-10-16T06:41:59;12.00;99.90
12708;DHT22;6418;50.824;4.718;2022-10-16T06:44:26;12.00;99.90
12708;DHT22;6418;50.824;4.718;2022-10-16T06:46:54;12.10;99.90
12708;DHT22;6418;50.824;4.718;2022-10-16T06:49:21;12.00;99.90
12708;DHT22;6418;50.824;4.718;2022-10-16T06:51:48;12.00;99.90
12708;DHT22;6418;50.824;4.718;2022-10-16T06:54:15;12.10;99.90
12708;DHT22;6418;50.824;4.718;2022-10-16T06:56:43;12.10;99.90
12708;DHT22;6418;50.824;4.718;2022-10-16T06:59:10;12.10;99.90
12708;DHT22;6418;50.824;4.718;2022-10-16T07:01:37;12.10;99.90
12708;DHT22;6418;50.824;4.718;2022-10-16T07:04:05;12.10;99.90
12708;DHT22;6418;50.824;4.718;2022-10-16T07:06:33;12.10;99.90
12708;DHT22;6418;50.824;4.718;2022-10-16T07:09:03;12.10;99.90
12708;DHT22;6418;50.824;4.718;2022-10-16T07:11:30;12.20;99.90
12708;DHT22;6418;50.824;4.718;2022-10-16T07:13:57;12.20;99.90
12708;DHT22;6418;50.824;4.718;2022-10-16T07:16:26;12.30;99.90
12708;DHT22;6418;50.824;4.718;2022-10-16T07:18:53;12.30;99.90
12708;DHT22;6418;50.824;4.718;2022-10-16T07:21:26;12.30;99.90
12708;DHT22;6418;50.824;4.718;2022-10-16T07:23:55;12.40;99.90
12708;DHT22;6418;50.824;4.718;2022-10-16T07:26:23;12.50;99.90
12708;DHT22;6418;50.824;4.718;2022-10-16T07:28:51;12.40;99.90
12708;DHT22;6418;50.824;4.718;2022-10-16T07:31:19;12.50;99.90
12708;DHT22;6418;50.824;4.718;2022-10-16T07:33:47;12.50;99.90
12708;DHT22;6418;50.824;4.718;2022-10-16T07:36:15;12.60;99.90
12708;DHT22;6418;50.824;4.718;2022-10-16T07:38:44;12.60;99.90
12708;DHT22;6418;50.824;4.718;2022-10-16T07:41:13;12.60;99.90
12708;DHT22;6418;50.824;4.718;2022-10-16T07:43:44;12.70;99.90
12708;DHT22;6418;50.824;4.718;2022-10-16T07:46:12;12.70;99.90
12708;DHT22;6418;50.824;4.718;2022-10-16T07:48:38;12.70;99.90
12708;DHT22;6418;50.824;4.718;2022-10-16T07:51:06;12.80;99.90
12708;DHT22;6418;50.824;4.718;2022-10-16T07:53:33;12.80;99.90
12708;DHT22;6418;50.824;4.718;2022-10-16T07:56:03;12.80;99.90
12708;DHT22;6418;50.824;4.718;2022-10-16T07:58:31;12.90;99.90
12708;DHT22;6418;50.824;4.718;2022-10-16T08:00:58;12.90;99.90
12708;DHT22;6418;50.824;4.718;2022-10-16T08:03:25;12.90;99.90
12708;DHT22;6418;50.824;4.718;2022-10-16T08:05:52;13.00;99.90
12708;DHT22;6418;50.824;4.718;2022-10-16T08:08:19;13.00;99.90
12708;DHT22;6418;50.824;4.718;2022-10-16T08:10:46;13.10;99.90
12708;DHT22;6418;50.824;4.718;2022-10-16T08:13:15;13.20;99.90
12708;DHT22;6418;50.824;4.718;2022-10-16T08:15:42;13.20;99.90
12708;DHT22;6418;50.824;4.718;2022-10-16T08:18:10;13.20;99.90
12708;DHT22;6418;50.824;4.718;2022-10-16T08:20:37;13.30;99.90
12708;DHT22;6418;50.824;4.718;2022-10-16T08:23:04;13.30;99.90
12708;DHT22;6418;50.824;4.718;2022-10-16T08:25:34;13.40;99.90
12708;DHT22;6418;50.824;4.718;2022-10-16T08:28:03;13.40;99.90
12708;DHT22;6418;50.824;4.718;2022-10-16T08:30:31;13.50;99.90
12708;DHT22;6418;50.824;4.718;2022-10-16T08:32:59;13.50;99.90
12708;DHT22;6418;50.824;4.718;2022-10-16T08:35:25;13.50;99.90
12708;DHT22;6418;50.824;4.718;2022-10-16T08:37:52;13.60;99.90
12708;DHT22;6418;50.824;4.718;2022-10-16T08:40:23;13.70;99.90
12708;DHT22;6418;50.824;4.718;2022-10-16T08:43:11;13.70;99.90
12708;DHT22;6418;50.824;4.718;2022-10-16T08:45:55;13.70;99.90
12708;DHT22;6418;50.824;4.718;2022-10-16T08:48:33;13.80;99.90
12708;DHT22;6418;50.824;4.718;2022-10-16T08:51:03;13.80;99.90
12708;DHT22;6418;50.824;4.718;2022-10-16T08:53:36;13.90;99.90
12708;DHT22;6418;50.824;4.718;2022-10-16T08:56:04;13.90;99.90
12708;DHT22;6418;50.824;4.718;2022-10-16T08:58:31;13.90;99.90
12708;DHT22;6418;50.824;4.718;2022-10-16T09:01:01;14.00;99.90
12708;DHT22;6418;50.824;4.718;2022-10-16T09:03:46;14.10;99.90
12708;DHT22;6418;50.824;4.718;2022-10-16T09:06:29;14.10;99.90
12708;DHT22;6418;50.824;4.718;2022-10-16T09:09:11;14.10;99.90
12708;DHT22;6418;50.824;4.718;2022-10-16T09:11:48;14.20;99.90
12708;DHT22;6418;50.824;4.718;2022-10-16T09:14:34;14.20;99.90
12708;DHT22;6418;50.824;4.718;2022-10-16T09:17:18;14.20;99.90
12708;DHT22;6418;50.824;4.718;2022-10-16T09:19:53;14.30;99.90
12708;DHT22;6418;50.824;4.718;2022-10-16T09:22:25;14.30;99.90
12708;DHT22;6418;50.824;4.718;2022-10-16T09:24:54;14.30;99.90
12708;DHT22;6418;50.824;4.718;2022-10-16T09:27:21;14.40;99.90
12708;DHT22;6418;50.824;4.718;2022-10-16T09:29:48;14.50;99.90
12708;DHT22;6418;50.824;4.718;2022-10-16T09:32:19;14.60;99.90
12708;DHT22;6418;50.824;4.718;2022-10-16T09:34:49;14.60;99.90
12708;DHT22;6418;50.824;4.718;2022-10-16T09:37:19;14.70;99.90
12708;DHT22;6418;50.824;4.718;2022-10-16T09:39:49;14.70;99.90
12708;DHT22;6418;50.824;4.718;2022-10-16T09:42:18;14.70;99.90
12708;DHT22;6418;50.824;4.718;2022-10-16T09:44:48;14.80;99.90
12708;DHT22;6418;50.824;4.718;2022-10-16T09:47:21;14.80;99.90
12708;DHT22;6418;50.824;4.718;2022-10-16T09:49:53;14.90;99.90
12708;DHT22;6418;50.824;4.718;2022-10-16T09:52:22;14.90;99.90
12708;DHT22;6418;50.824;4.718;2022-10-16T09:54:51;15.00;99.90
12708;DHT22;6418;50.824;4.718;2022-10-16T09:57:19;15.00;99.90
12708;DHT22;6418;50.824;4.718;2022-10-16T09:59:47;15.10;99.90
12708;DHT22;6418;50.824;4.718;2022-10-16T10:02:17;15.10;99.90
12708;DHT22;6418;50.824;4.718;2022-10-16T10:04:50;15.20;99.90
12708;DHT22;6418;50.824;4.718;2022-10-16T10:07:23;15.20;99.90
12708;DHT22;6418;50.824;4.718;2022-10-16T10:09:51;15.10;99.90
12708;DHT22;6418;50.824;4.718;2022-10-16T10:12:20;15.30;99.90
12708;DHT22;6418;50.824;4.718;2022-10-16T10:14:50;15.30;99.90
12708;DHT22;6418;50.824;4.718;2022-10-16T10:17:21;15.40;99.90
12708;DHT22;6418;50.824;4.718;2022-10-16T10:19:51;15.40;99.90
12708;DHT22;6418;50.824;4.718;2022-10-16T10:22:27;15.50;99.90
12708;DHT22;6418;50.824;4.718;2022-10-16T10:25:15;15.50;99.90
12708;DHT22;6418;50.824;4.718;2022-10-16T10:28:05;15.60;99.90
12708;DHT22;6418;50.824;4.718;2022-10-16T10:30:37;15.60;99.90
12708;DHT22;6418;50.824;4.718;2022-10-16T10:33:24;15.60;99.90
12708;DHT22;6418;50.824;4.718;2022-10-16T10:35:59;15.60;99.90
12708;DHT22;6418;50.824;4.718;2022-10-16T10:38:32;15.70;99.90
12708;DHT22;6418;50.824;4.718;2022-10-16T10:41:11;15.70;99.90
12708;DHT22;6418;50.824;4.718;2022-10-16T10:43:55;15.80;99.90
12708;DHT22;6418;50.824;4.718;2022-10-16T10:46:29;15.80;99.90
12708;DHT22;6418;50.824;4.718;2022-10-16T10:49:16;15.90;99.90
12708;DHT22;6418;50.824;4.718;2022-10-16T10:51:55;15.90;99.90
12708;DHT22;6418;50.824;4.718;2022-10-16T10:54:27;15.90;99.90
12708;DHT22;6418;50.824;4.718;2022-10-16T10:57:00;15.90;99.90
12708;DHT22;6418;50.824;4.718;2022-10-16T10:59:39;15.90;99.90
12708;DHT22;6418;50.824;4.718;2022-10-16T11:02:17;16.00;99.90
12708;DHT22;6418;50.824;4.718;2022-10-16T11:05:12;16.00;99.90
12708;DHT22;6418;50.824;4.718;2022-10-16T11:07:48;16.10;99.90
12708;DHT22;6418;50.824;4.718;2022-10-16T11:10:20;16.10;99.90
12708;DHT22;6418;50.824;4.718;2022-10-16T11:12:51;16.10;99.90
12708;DHT22;6418;50.824;4.718;2022-10-16T11:15:23;16.20;99.90
12708;DHT22;6418;50.824;4.718;2022-10-16T11:17:53;16.20;99.90
12708;DHT22;6418;50.824;4.718;2022-10-16T11:20:26;16.30;99.90
12708;DHT22;6418;50.824;4.718;2022-10-16T11:22:56;16.30;99.90
12708;DHT22;6418;50.824;4.718;2022-10-16T11:25:26;16.40;99.90
12708;DHT22;6418;50.824;4.718;2022-10-16T11:27:57;16.40;99.90
12708;DHT22;6418;50.824;4.718;2022-10-16T11:30:27;16.40;99.90
12708;DHT22;6418;50.824;4.718;2022-10-16T11:33:05;16.40;99.90
12708;DHT22;6418;50.824;4.718;2022-10-16T11:35:44;16.40;99.90
12708;DHT22;6418;50.824;4.718;2022-10-16T11:38:22;16.40;99.90
12708;DHT22;6418;50.824;4.718;2022-10-16T11:40:53;16.40;99.90
12708;DHT22;6418;50.824;4.718;2022-10-16T11:43:26;16.40;99.90
12708;DHT22;6418;50.824;4.718;2022-10-16T11:45:57;16.40;99.90
12708;DHT22;6418;50.824;4.718;2022-10-16T11:48:30;16.50;99.90
12708;DHT22;6418;50.824;4.718;2022-10-16T11:51:05;16.50;99.90
12708;DHT22;6418;50.824;4.718;2022-10-16T11:53:44;16.60;99.90
12708;DHT22;6418;50.824;4.718;2022-10-16T11:56:13;16.60;99.90
12708;DHT22;6418;50.824;4.718;2022-10-16T11:58:50;16.70;99.90
12708;DHT22;6418;50.824;4.718;2022-10-16T12:01:24;16.70;99.90
12708;DHT22;6418;50.824;4.718;2022-10-16T12:04:03;16.80;99.90
12708;DHT22;6418;50.824;4.718;2022-10-16T12:06:36;16.80;99.90
12708;DHT22;6418;50.824;4.718;2022-10-16T12:09:04;16.90;99.90
12708;DHT22;6418;50.824;4.718;2022-10-16T12:11:35;16.90;99.90
12708;DHT22;6418;50.824;4.718;2022-10-16T12:14:21;17.00;99.90
12708;DHT22;6418;50.824;4.718;2022-10-16T12:16:53;17.20;99.90
12708;DHT22;6418;50.824;4.718;2022-10-16T12:19:21;17.30;99.90
12708;DHT22;6418;50.824;4.718;2022-10-16T12:21:51;17.40;99.90
12708;DHT22;6418;50.824;4.718;2022-10-16T12:24:32;17.50;99.90
12708;DHT22;6418;50.824;4.718;2022-10-16T12:27:00;17.60;99.90
12708;DHT22;6418;50.824;4.718;2022-10-16T12:29:34;17.70;99.90
12708;DHT22;6418;50.824;4.718;2022-10-16T12:32:04;17.80;99.90
12708;DHT22;6418;50.824;4.718;2022-10-16T12:34:37;17.90;99.90
12708;DHT22;6418;50.824;4.718;2022-10-16T12:37:13;18.00;99.90
12708;DHT22;6418;50.824;4.718;2022-10-16T12:39:41;18.10;99.90
12708;DHT22;6418;50.824;4.718;2022-10-16T12:42:31;18.10;99.90
12708;DHT22;6418;50.824;4.718;2022-10-16T12:44:59;18.20;99.90
12708;DHT22;6418;50.824;4.718;2022-10-16T12:47:36;18.20;99.90
12708;DHT22;6418;50.824;4.718;2022-10-16T12:50:27;18.20;99.90
12708;DHT22;6418;50.824;4.718;2022-10-16T12:52:57;18.30;99.90
12708;DHT22;6418;50.824;4.718;2022-10-16T12:55:26;18.30;99.90
12708;DHT22;6418;50.824;4.718;2022-10-16T12:58:11;18.40;99.90
12708;DHT22;6418;50.824;4.718;2022-10-16T13:00:44;18.40;99.90
12708;DHT22;6418;50.824;4.718;2022-10-16T13:03:40;18.40;99.90
12708;DHT22;6418;50.824;4.718;2022-10-16T13:06:19;18.40;99.90
12708;DHT22;6418;50.824;4.718;2022-10-16T13:09:02;18.40;99.90
12708;DHT22;6418;50.824;4.718;2022-10-16T13:11:47;18.40;99.90
12708;DHT22;6418;50.824;4.718;2022-10-16T13:14:48;18.40;99.90
12708;DHT22;6418;50.824;4.718;2022-10-16T13:17:24;18.40;99.90
12708;DHT22;6418;50.824;4.718;2022-10-16T13:19:59;18.50;99.90
12708;DHT22;6418;50.824;4.718;2022-10-16T13:22:37;18.50;99.90
12708;DHT22;6418;50.824;4.718;2022-10-16T13:25:17;18.60;99.90
12708;DHT22;6418;50.824;4.718;2022-10-16T13:27:51;18.70;99.90
12708;DHT22;6418;50.824;4.718;2022-10-16T13:30:22;18.70;99.90
12708;DHT22;6418;50.824;4.718;2022-10-16T13:32:55;18.70;99.90
12708;DHT22;6418;50.824;4.718;2022-10-16T13:35:27;18.70;99.90
12708;DHT22;6418;50.824;4.718;2022-10-16T13:38:11;18.70;99.90
12708;DHT22;6418;50.824;4.718;2022-10-16T13:40:50;18.70;99.90
12708;DHT22;6418;50.824;4.718;2022-10-16T13:43:18;18.70;99.90
12708;DHT22;6418;50.824;4.718;2022-10-16T13:45:53;18.70;99.90
12708;DHT22;6418;50.824;4.718;2022-10-16T13:48:20;18.80;99.90
12708;DHT22;6418;50.824;4.718;2022-10-16T13:50:58;18.80;99.90
12708;DHT22;6418;50.824;4.718;2022-10-16T13:53:25;18.90;99.90
12708;DHT22;6418;50.824;4.718;2022-10-16T13:55:53;19.00;99.90
12708;DHT22;6418;50.824;4.718;2022-10-16T13:58:20;19.00;99.90
12708;DHT22;6418;50.824;4.718;2022-10-16T14:00:56;18.90;99.90
12708;DHT22;6418;50.824;4.718;2022-10-16T14:03:24;18.90;99.90
12708;DHT22;6418;50.824;4.718;2022-10-16T14:05:53;18.90;99.90
12708;DHT22;6418;50.824;4.718;2022-10-16T14:08:20;18.90;99.90
12708;DHT22;6418;50.824;4.718;2022-10-16T14:10:50;18.80;99.90
12708;DHT22;6418;50.824;4.718;2022-10-16T14:13:28;18.80;99.90
12708;DHT22;6418;50.824;4.718;2022-10-16T14:15:56;18.80;99.90
12708;DHT22;6418;50.824;4.718;2022-10-16T14:18:25;18.80;99.90
12708;DHT22;6418;50.824;4.718;2022-10-16T14:20:53;18.70;99.90
12708;DHT22;6418;50.824;4.718;2022-10-16T14:23:23;18.80;99.90
12708;DHT22;6418;50.824;4.718;2022-10-16T14:25:52;18.70;99.90
12708;DHT22;6418;50.824;4.718;2022-10-16T14:28:21;18.80;99.90
12708;DHT22;6418;50.824;4.718;2022-10-16T14:30:53;18.70;99.90
12708;DHT22;6418;50.824;4.718;2022-10-16T14:33:23;18.70;99.90
12708;DHT22;6418;50.824;4.718;2022-10-16T14:36:02;18.70;99.90
12708;DHT22;6418;50.824;4.718;2022-10-16T14:38:30;18.70;99.90
12708;DHT22;6418;50.824;4.718;2022-10-16T14:40:59;18.70;99.90
12708;DHT22;6418;50.824;4.718;2022-10-16T14:43:32;18.70;99.90
12708;DHT22;6418;50.824;4.718;2022-10-16T14:45:59;18.70;99.90
12708;DHT22;6418;50.824;4.718;2022-10-16T14:48:27;18.70;99.90
12708;DHT22;6418;50.824;4.718;2022-10-16T14:50:54;18.60;99.90
12708;DHT22;6418;50.824;4.718;2022-10-16T14:53:21;18.70;99.90
12708;DHT22;6418;50.824;4.718;2022-10-16T14:55:48;18.70;99.90
12708;DHT22;6418;50.824;4.718;2022-10-16T14:58:17;18.70;99.90
12708;DHT22;6418;50.824;4.718;2022-10-16T15:00:46;18.70;99.90
12708;DHT22;6418;50.824;4.718;2022-10-16T15:03:13;18.60;99.90
12708;DHT22;6418;50.824;4.718;2022-10-16T15:05:40;18.60;99.90
12708;DHT22;6418;50.824;4.718;2022-10-16T15:08:07;18.60;99.90
12708;DHT22;6418;50.824;4.718;2022-10-16T15:10:38;18.60;99.90
12708;DHT22;6418;50.824;4.718;2022-10-16T15:13:06;18.50;99.90
12708;DHT22;6418;50.824;4.718;2022-10-16T15:15:38;18.50;99.90
12708;DHT22;6418;50.824;4.718;2022-10-16T15:18:08;18.50;99.90
12708;DHT22;6418;50.824;4.718;2022-10-16T15:20:37;18.50;99.90
12708;DHT22;6418;50.824;4.718;2022-10-16T15:23:06;18.50;99.90
12708;DHT22;6418;50.824;4.718;2022-10-16T15:25:38;18.50;99.90
12708;DHT22;6418;50.824;4.718;2022-10-16T15:28:06;18.50;99.90
12708;DHT22;6418;50.824;4.718;2022-10-16T15:30:34;18.50;99.90
12708;DHT22;6418;50.824;4.718;2022-10-16T15:33:01;18.40;99.90
12708;DHT22;6418;50.824;4.718;2022-10-16T15:35:30;18.40;99.90
12708;DHT22;6418;50.824;4.718;2022-10-16T15:37:57;18.40;99.90
12708;DHT22;6418;50.824;4.718;2022-10-16T15:40:24;18.30;99.90
12708;DHT22;6418;50.824;4.718;2022-10-16T15:42:51;18.30;99.90
12708;DHT22;6418;50.824;4.718;2022-10-16T15:45:18;18.20;99.90
12708;DHT22;6418;50.824;4.718;2022-10-16T15:47:45;18.10;99.90
12708;DHT22;6418;50.824;4.718;2022-10-16T15:50:13;18.10;99.90
12708;DHT22;6418;50.824;4.718;2022-10-16T15:52:43;18.10;99.90
12708;DHT22;6418;50.824;4.718;2022-10-16T15:55:11;18.00;99.90
12708;DHT22;6418;50.824;4.718;2022-10-16T15:57:38;17.90;99.90
12708;DHT22;6418;50.824;4.718;2022-10-16T16:00:08;17.90;99.90
12708;DHT22;6418;50.824;4.718;2022-10-16T16:02:35;17.80;99.90
12708;DHT22;6418;50.824;4.718;2022-10-16T16:05:02;17.70;99.90